createdAt,value
2023-03-08T00:00:51.960Z,0.60
2023-03-08T00:03:20.441Z,0.30
2023-03-08T00:05:48.905Z,0.53
2023-03-08T00:08:18.443Z,0.50
2023-03-08T00:10:46.932Z,0.37
2023-03-08T00:13:15.742Z,0.50
2023-03-08T00:15:45.803Z,0.37
2023-03-08T00:18:14.341Z,0.50
2023-03-08T00:20:42.809Z,0.23
2023-03-08T00:23:11.522Z,0.47
2023-03-08T00:25:39.979Z,0.63
2023-03-08T00:28:08.457Z,0.40
2023-03-08T00:30:38.313Z,0.60
2023-03-08T00:33:08.180Z,0.30
2023-03-08T00:35:36.718Z,0.40
2023-03-08T00:38:05.443Z,0.40
2023-03-08T00:40:33.908Z,0.30
2023-03-08T00:43:02.391Z,0.50
2023-03-08T00:45:31.619Z,0.30
2023-03-08T00:48:00.131Z,0.20
2023-03-08T00:50:30.000Z,0.33
2023-03-08T00:52:58.689Z,0.30
2023-03-08T00:55:27.153Z,0.30
2023-03-08T00:57:55.632Z,0.27
2023-03-08T01:00:25.298Z,0.23
2023-03-08T01:02:53.824Z,0.30
2023-03-08T01:05:22.302Z,0.10
2023-03-08T01:07:52.521Z,0.30
2023-03-08T01:10:21.044Z,0.23
2023-03-08T01:12:49.507Z,0.47
2023-03-08T01:15:18.387Z,0.20
2023-03-08T01:17:46.856Z,0.30
2023-03-08T01:20:15.500Z,0.20
2023-03-08T01:22:44.200Z,0.40
2023-03-08T01:25:14.490Z,0.20
2023-03-08T01:27:43.021Z,0.23
2023-03-08T01:30:12.256Z,0.23
2023-03-08T01:32:40.780Z,0.13
2023-03-08T01:35:09.647Z,0.30
2023-03-08T01:37:38.294Z,0.50
2023-03-08T01:40:07.509Z,0.20
2023-03-08T01:42:41.654Z,0.30
2023-03-08T01:45:24.936Z,0.20
2023-03-08T01:47:53.631Z,0.20
2023-03-08T01:50:22.470Z,0.30
2023-03-08T01:52:54.004Z,0.30
2023-03-08T01:55:22.654Z,0.20
2023-03-08T01:57:54.800Z,0.00
2023-03-08T02:00:24.121Z,0.20
2023-03-08T02:02:54.221Z,0.20
2023-03-08T02:05:23.797Z,0.30
2023-03-08T02:07:52.440Z,0.10
2023-03-08T02:10:21.224Z,0.23
2023-03-08T02:12:49.732Z,0.20
2023-03-08T02:15:22.098Z,0.20
2023-03-08T02:17:50.569Z,0.37
2023-03-08T02:20:20.720Z,0.20
2023-03-08T02:22:53.370Z,0.10
2023-03-08T02:25:23.045Z,0.13
2023-03-08T02:27:51.823Z,0.20
2023-03-08T02:30:26.012Z,0.50
2023-03-08T02:32:54.486Z,0.30
2023-03-08T02:35:23.341Z,0.30
2023-03-08T02:37:53.306Z,0.30
2023-03-08T02:40:21.913Z,0.17
2023-03-08T02:42:53.183Z,0.40
2023-03-08T02:45:22.039Z,0.60
2023-03-08T02:47:50.510Z,0.50
2023-03-08T02:50:19.063Z,0.70
2023-03-08T02:52:47.776Z,0.30
2023-03-08T02:55:17.651Z,0.13
2023-03-08T02:57:46.151Z,0.40
2023-03-08T03:00:15.816Z,0.30
2023-03-08T03:02:44.298Z,0.47
2023-03-08T03:05:12.981Z,0.30
2023-03-08T03:07:42.240Z,0.23
2023-03-08T03:10:11.799Z,0.37
2023-03-08T03:12:41.955Z,0.40
2023-03-08T03:15:11.995Z,0.03
2023-03-08T03:17:40.492Z,0.30
2023-03-08T03:20:10.225Z,0.30
2023-03-08T03:22:38.996Z,0.30
2023-03-08T03:25:07.918Z,0.30
2023-03-08T03:27:36.386Z,0.20
2023-03-08T03:30:07.098Z,0.13
2023-03-08T03:32:35.663Z,0.10
2023-03-08T03:35:04.653Z,0.10
2023-03-08T03:37:33.948Z,0.10
2023-03-08T03:40:02.430Z,0.10
2023-03-08T03:42:30.907Z,0.30
2023-03-08T03:44:59.702Z,0.30
2023-03-08T03:47:30.483Z,0.07
2023-03-08T03:49:58.954Z,0.00
2023-03-08T03:52:27.788Z,0.07
2023-03-08T03:54:56.352Z,0.37
2023-03-08T03:57:24.828Z,0.20
2023-03-08T03:59:53.464Z,0.20
2023-03-08T04:02:22.227Z,0.20
2023-03-08T04:04:52.463Z,0.30
2023-03-08T04:07:21.309Z,0.30
2023-03-08T04:09:50.012Z,0.20
2023-03-08T04:12:18.555Z,0.20
2023-03-08T04:14:47.290Z,0.30
2023-03-08T04:17:15.795Z,0.20
2023-03-08T04:19:44.340Z,0.40
2023-03-08T04:22:14.608Z,0.30
2023-03-08T04:24:43.094Z,0.10
2023-03-08T04:27:11.729Z,0.30
2023-03-08T04:29:40.576Z,0.20
2023-03-08T04:32:09.265Z,0.17
2023-03-08T04:34:37.944Z,0.20
2023-03-08T04:37:06.566Z,0.30
2023-03-08T04:39:36.415Z,0.27
2023-03-08T04:42:05.035Z,0.30
2023-03-08T04:44:33.622Z,0.10
2023-03-08T04:47:02.195Z,0.20
2023-03-08T04:49:30.889Z,0.40
2023-03-08T04:51:59.429Z,0.30
2023-03-08T04:54:28.402Z,0.40
2023-03-08T04:56:58.398Z,0.30
2023-03-08T04:59:26.984Z,0.50
2023-03-08T05:01:55.493Z,0.60
2023-03-08T05:04:24.108Z,0.50
2023-03-08T05:06:52.654Z,0.27
2023-03-08T05:09:21.246Z,0.50
2023-03-08T05:11:49.847Z,0.30
2023-03-08T05:14:19.844Z,0.37
2023-03-08T05:16:48.314Z,0.27
2023-03-08T05:19:16.920Z,0.80
2023-03-08T05:21:45.510Z,0.67
2023-03-08T05:24:13.988Z,0.53
2023-03-08T05:26:42.551Z,0.50
2023-03-08T05:29:11.135Z,0.40
2023-03-08T05:31:42.712Z,0.40
2023-03-08T05:34:12.018Z,0.10
2023-03-08T05:36:42.149Z,0.40
2023-03-08T05:39:10.632Z,0.20
2023-03-08T05:41:39.261Z,0.20
2023-03-08T05:44:07.735Z,0.33
2023-03-08T05:46:38.226Z,0.20
2023-03-08T05:49:08.899Z,0.40
2023-03-08T05:51:37.375Z,0.33
2023-03-08T05:54:05.987Z,0.23
2023-03-08T05:56:34.670Z,0.27
2023-03-08T05:59:03.139Z,0.20
2023-03-08T06:01:31.607Z,0.20
2023-03-08T06:04:00.288Z,0.10
2023-03-08T06:06:30.265Z,0.40
2023-03-08T06:08:58.818Z,0.60
2023-03-08T06:11:27.663Z,0.10
2023-03-08T06:13:56.237Z,0.37
2023-03-08T06:16:24.794Z,0.30
2023-03-08T06:18:53.400Z,0.50
2023-03-08T06:21:23.156Z,0.40
2023-03-08T06:23:53.340Z,0.20
2023-03-08T06:26:22.068Z,0.10
2023-03-08T06:28:50.769Z,0.47
2023-03-08T06:31:20.793Z,0.30
2023-03-08T06:33:49.387Z,0.47
2023-03-08T06:36:19.270Z,0.70
2023-03-08T06:38:48.406Z,0.63
2023-03-08T06:41:19.223Z,0.60
2023-03-08T06:43:47.811Z,0.47
2023-03-08T06:46:18.323Z,0.50
2023-03-08T06:48:47.582Z,0.20
2023-03-08T06:51:16.179Z,0.40
2023-03-08T06:53:44.824Z,0.90
2023-03-08T06:56:15.726Z,1.07
2023-03-08T06:58:45.955Z,1.40
2023-03-08T07:01:15.676Z,1.10
2023-03-08T07:03:45.616Z,1.10
2023-03-08T07:06:14.906Z,1.07
2023-03-08T07:08:43.563Z,0.90
2023-03-08T07:11:12.060Z,1.23
2023-03-08T07:13:40.700Z,0.90
2023-03-08T07:16:11.902Z,0.53
2023-03-08T07:18:40.461Z,0.30
2023-03-08T07:21:10.334Z,0.20
2023-03-08T07:23:39.070Z,0.60
2023-03-08T07:26:07.954Z,0.50
2023-03-08T07:28:36.563Z,0.47
2023-03-08T07:31:05.432Z,0.57
2023-03-08T07:33:35.381Z,0.60
2023-03-08T07:36:03.972Z,0.73
2023-03-08T07:38:32.720Z,1.10
2023-03-08T07:41:01.324Z,1.30
2023-03-08T07:43:29.782Z,0.80
2023-03-08T07:46:00.873Z,0.50
2023-03-08T07:48:29.602Z,0.50
2023-03-08T07:51:02.478Z,0.20
2023-03-08T07:53:31.165Z,0.30
2023-03-08T07:56:00.315Z,0.00
2023-03-08T07:58:28.875Z,0.20
2023-03-08T08:00:57.678Z,0.20
2023-03-08T08:03:26.419Z,0.20
2023-03-08T08:05:55.041Z,0.80
2023-03-08T08:08:25.075Z,0.30
2023-03-08T08:10:53.666Z,0.20
2023-03-08T08:13:22.127Z,0.27
2023-03-08T08:16:00.743Z,0.40
2023-03-08T08:18:29.244Z,0.60
2023-03-08T08:21:04.962Z,0.83
2023-03-08T08:23:34.905Z,0.70
2023-03-08T08:26:06.462Z,0.27
2023-03-08T08:28:35.388Z,0.60
2023-03-08T08:31:04.936Z,0.20
2023-03-08T08:33:34.470Z,0.50
2023-03-08T08:36:04.989Z,0.20
2023-03-08T08:38:34.910Z,0.50
2023-03-08T08:41:03.760Z,0.20
2023-03-08T08:43:32.389Z,0.43
2023-03-08T08:46:01.186Z,0.50
2023-03-08T08:48:30.234Z,0.60
2023-03-08T08:51:00.041Z,0.40
2023-03-08T08:53:28.816Z,1.03
2023-03-08T08:55:58.837Z,0.60
2023-03-08T08:58:27.723Z,0.87
2023-03-08T09:00:56.181Z,0.20
2023-03-08T09:03:24.767Z,0.60
2023-03-08T09:05:53.362Z,0.57
2023-03-08T09:08:21.833Z,0.40
2023-03-08T09:10:50.470Z,0.40
2023-03-08T09:13:20.624Z,0.53
2023-03-08T09:15:49.135Z,0.70
2023-03-08T09:18:17.875Z,0.50
2023-03-08T09:20:46.414Z,0.50
2023-03-08T09:23:14.942Z,0.40
2023-03-08T09:25:43.572Z,0.20
2023-03-08T09:28:13.116Z,0.50
2023-03-08T09:30:43.687Z,0.40
2023-03-08T09:33:12.272Z,0.50
2023-03-08T09:35:41.079Z,0.30
2023-03-08T09:38:09.591Z,0.30
2023-03-08T09:40:40.939Z,0.27
2023-03-08T09:43:14.417Z,0.20
2023-03-08T09:45:44.407Z,0.33
2023-03-08T09:48:15.177Z,0.30
2023-03-08T09:50:46.232Z,0.20
2023-03-08T09:53:24.449Z,0.37
2023-03-08T09:55:54.985Z,0.30
2023-03-08T09:58:30.179Z,0.93
2023-03-08T10:01:02.222Z,2.03
2023-03-08T10:03:42.027Z,2.20
2023-03-08T10:06:16.007Z,2.70
2023-03-08T10:08:49.890Z,2.40
2023-03-08T10:11:20.797Z,2.87
2023-03-08T10:13:50.843Z,3.13
2023-03-08T10:16:26.133Z,4.03
2023-03-08T10:18:56.612Z,3.30
2023-03-08T10:21:26.435Z,4.07
2023-03-08T10:23:58.542Z,3.10
2023-03-08T10:26:27.575Z,1.30
2023-03-08T10:28:56.186Z,0.57
2023-03-08T10:31:27.563Z,0.70
2023-03-08T10:34:11.583Z,0.60
2023-03-08T10:36:49.282Z,0.50
2023-03-08T10:39:18.424Z,0.40
2023-03-08T10:41:48.175Z,0.30
2023-03-08T10:44:17.620Z,0.33
2023-03-08T10:46:51.838Z,0.40
2023-03-08T10:49:21.547Z,0.10
2023-03-08T10:51:57.680Z,0.30
2023-03-08T10:54:26.449Z,0.10
2023-03-08T10:56:56.804Z,0.00
2023-03-08T10:59:29.767Z,0.20
2023-03-08T11:02:00.919Z,0.10
2023-03-08T11:04:30.153Z,0.20
2023-03-08T11:06:59.169Z,0.10
2023-03-08T11:09:29.011Z,0.10
2023-03-08T11:11:58.001Z,0.00
2023-03-08T11:14:27.406Z,0.30
2023-03-08T11:17:02.049Z,0.10
2023-03-08T11:19:34.483Z,0.10
2023-03-08T11:22:06.824Z,0.20
2023-03-08T11:24:42.395Z,0.20
2023-03-08T11:27:24.628Z,0.07
2023-03-08T11:29:59.008Z,0.10
2023-03-08T11:32:35.103Z,0.20
2023-03-08T11:35:13.962Z,0.07
2023-03-08T11:37:46.146Z,0.10
2023-03-08T11:40:23.128Z,0.10
2023-03-08T11:42:56.223Z,0.10
2023-03-08T11:45:27.950Z,0.10
2023-03-08T11:48:13.055Z,0.10
2023-03-08T11:50:44.186Z,0.40
2023-03-08T11:53:17.016Z,0.10
2023-03-08T11:55:50.273Z,0.10
2023-03-08T11:58:22.402Z,0.30
2023-03-08T12:00:52.307Z,0.20
2023-03-08T12:03:23.893Z,0.20
2023-03-08T12:05:54.911Z,0.17
2023-03-08T12:08:24.573Z,0.23
2023-03-08T12:10:58.592Z,0.30
2023-03-08T12:13:30.138Z,0.10
2023-03-08T12:16:01.941Z,0.30
2023-03-08T12:18:36.883Z,0.30
2023-03-08T12:21:12.201Z,0.30
2023-03-08T12:23:44.847Z,0.13
2023-03-08T12:26:17.079Z,0.00
2023-03-08T12:28:48.285Z,0.20
2023-03-08T12:31:27.783Z,0.30
2023-03-08T12:33:59.368Z,0.10
2023-03-08T12:36:38.260Z,0.20
2023-03-08T12:39:10.788Z,0.10
2023-03-08T12:41:39.460Z,0.30
2023-03-08T12:44:09.229Z,0.10
2023-03-08T12:47:02.219Z,0.07
2023-03-08T12:49:35.082Z,0.20
2023-03-08T12:52:05.073Z,0.10
2023-03-08T12:54:34.901Z,0.20
2023-03-08T12:57:04.473Z,0.30
2023-03-08T12:59:38.490Z,0.10
2023-03-08T13:02:26.643Z,0.10
2023-03-08T13:05:05.391Z,0.10
2023-03-08T13:07:36.150Z,0.27
2023-03-08T13:10:08.559Z,0.10
2023-03-08T13:12:41.647Z,0.27
2023-03-08T13:15:22.571Z,0.33
2023-03-08T13:17:52.256Z,0.20
2023-03-08T13:20:24.380Z,0.10
2023-03-08T13:23:03.059Z,0.10
2023-03-08T13:25:39.568Z,0.33
2023-03-08T13:28:09.052Z,0.10
2023-03-08T13:30:38.982Z,0.23
2023-03-08T13:33:09.151Z,0.10
2023-03-08T13:35:39.142Z,0.30
2023-03-08T13:38:07.747Z,0.20
2023-03-08T13:40:36.390Z,0.23
2023-03-08T13:43:08.652Z,0.00
2023-03-08T13:45:37.423Z,0.10
2023-03-08T13:48:09.115Z,0.23
2023-03-08T13:50:40.705Z,0.20
2023-03-08T13:53:10.727Z,0.20
2023-03-08T13:55:41.500Z,0.00
2023-03-08T13:58:20.481Z,0.00
2023-03-08T14:01:01.724Z,0.10
2023-03-08T14:03:31.638Z,0.00
2023-03-08T14:06:01.973Z,0.10
2023-03-08T14:08:30.792Z,0.10
2023-03-08T14:11:01.687Z,0.10
2023-03-08T14:13:31.776Z,0.17
2023-03-08T14:16:01.391Z,0.10
2023-03-08T14:18:33.152Z,0.10
2023-03-08T14:21:08.009Z,0.17
2023-03-08T14:23:39.889Z,0.20
2023-03-08T14:26:12.784Z,0.07
2023-03-08T14:28:42.322Z,0.10
2023-03-08T14:31:26.829Z,0.07
2023-03-08T14:33:59.683Z,0.20
2023-03-08T14:36:30.722Z,0.10
2023-03-08T14:39:00.811Z,0.20
2023-03-08T14:41:33.433Z,0.20
2023-03-08T14:44:02.251Z,0.20
2023-03-08T14:46:31.220Z,0.00
2023-03-08T14:49:00.747Z,0.20
2023-03-08T14:51:32.372Z,0.13
2023-03-08T14:54:01.479Z,0.10
2023-03-08T14:56:31.235Z,0.10
2023-03-08T14:59:01.537Z,0.17
2023-03-08T15:01:31.237Z,0.17
2023-03-08T15:04:00.533Z,0.20
2023-03-08T15:06:30.124Z,0.20
2023-03-08T15:09:00.482Z,0.17
2023-03-08T15:11:31.518Z,0.20
2023-03-08T15:14:00.175Z,0.10
2023-03-08T15:16:28.979Z,0.20
2023-03-08T15:18:57.652Z,0.10
2023-03-08T15:21:27.138Z,0.10
2023-03-08T15:23:56.209Z,0.27
2023-03-08T15:26:27.277Z,0.13
2023-03-08T15:28:56.004Z,0.10
2023-03-08T15:31:24.744Z,0.10
2023-03-08T15:33:53.250Z,0.00
2023-03-08T15:36:21.888Z,0.20
2023-03-08T15:38:50.607Z,0.10
2023-03-08T15:41:19.341Z,0.20
2023-03-08T15:43:49.232Z,0.13
2023-03-08T15:46:17.904Z,0.40
2023-03-08T15:48:46.643Z,0.20
2023-03-08T15:51:18.552Z,0.20
2023-03-08T15:53:47.282Z,0.10
2023-03-08T15:56:15.894Z,0.20
2023-03-08T15:58:44.423Z,0.20
2023-03-08T16:01:14.409Z,0.20
2023-03-08T16:03:43.031Z,0.20
2023-03-08T16:06:11.792Z,0.23
2023-03-08T16:08:41.245Z,0.20
2023-03-08T16:11:09.771Z,0.10
2023-03-08T16:13:38.651Z,0.30
2023-03-08T16:16:07.789Z,0.20
2023-03-08T16:18:40.597Z,0.30
2023-03-08T16:21:09.939Z,0.40
2023-03-08T16:23:38.560Z,0.30
2023-03-08T16:26:15.949Z,0.20
2023-03-08T16:28:46.058Z,0.20
2023-03-08T16:31:15.188Z,0.10
2023-03-08T16:33:45.246Z,0.20
2023-03-08T16:36:14.181Z,0.20
2023-03-08T16:38:43.104Z,0.20
2023-03-08T16:41:14.185Z,0.33
2023-03-08T16:43:47.947Z,0.10
2023-03-08T16:46:17.749Z,0.40
2023-03-08T16:48:49.594Z,0.10
2023-03-08T16:51:19.234Z,0.20
2023-03-08T16:53:47.854Z,0.27
2023-03-08T16:56:19.252Z,0.20
2023-03-08T16:58:47.995Z,0.30
2023-03-08T17:01:17.778Z,0.30
2023-03-08T17:03:47.767Z,0.20
2023-03-08T17:06:17.824Z,0.20
2023-03-08T17:08:46.494Z,0.10
2023-03-08T17:11:18.257Z,0.20
2023-03-08T17:13:51.037Z,0.20
2023-03-08T17:16:19.854Z,0.20
2023-03-08T17:18:49.902Z,0.20
2023-03-08T17:21:18.759Z,0.20
2023-03-08T17:23:47.354Z,0.20
2023-03-08T17:26:17.604Z,0.40
2023-03-08T17:28:46.235Z,0.27
2023-03-08T17:31:15.628Z,0.50
2023-03-08T17:33:44.635Z,0.30
2023-03-08T17:36:15.231Z,0.27
2023-03-08T17:38:43.978Z,0.20
2023-03-08T17:41:13.119Z,0.50
2023-03-08T17:43:41.895Z,0.87
2023-03-08T17:46:12.988Z,0.93
2023-03-08T17:48:41.650Z,1.50
2023-03-08T17:51:11.098Z,0.93
2023-03-08T17:53:41.348Z,0.70
2023-03-08T17:56:10.709Z,0.63
2023-03-08T17:58:39.719Z,0.60
2023-03-08T18:01:09.289Z,0.60
2023-03-08T18:03:37.937Z,0.50
2023-03-08T18:06:06.989Z,0.50
2023-03-08T18:08:36.322Z,0.40
2023-03-08T18:11:06.429Z,0.40
2023-03-08T18:13:34.891Z,0.50
2023-03-08T18:16:04.527Z,0.70
2023-03-08T18:18:33.189Z,0.40
2023-03-08T18:21:12.598Z,0.23
2023-03-08T18:23:43.396Z,0.57
2023-03-08T18:26:13.463Z,0.30
2023-03-08T18:28:41.984Z,0.43
2023-03-08T18:31:11.180Z,0.77
2023-03-08T18:33:39.695Z,0.60
2023-03-08T18:36:08.645Z,0.80
2023-03-08T18:38:37.902Z,0.70
2023-03-08T18:41:14.850Z,0.57
2023-03-08T18:43:43.791Z,0.60
2023-03-08T18:46:13.541Z,0.70
2023-03-08T18:48:42.484Z,0.87
2023-03-08T18:51:11.158Z,1.03
2023-03-08T18:53:40.296Z,0.97
2023-03-08T18:56:09.274Z,1.00
2023-03-08T18:58:39.438Z,0.80
2023-03-08T19:01:11.800Z,0.93
2023-03-08T19:03:40.540Z,1.00
2023-03-08T19:06:09.410Z,0.70
2023-03-08T19:08:38.179Z,0.60
2023-03-08T19:11:13.426Z,0.73
2023-03-08T19:13:43.781Z,0.60
2023-03-08T19:16:19.786Z,0.43
2023-03-08T19:18:49.030Z,0.63
2023-03-08T19:21:18.717Z,0.47
2023-03-08T19:23:47.474Z,0.60
2023-03-08T19:26:42.274Z,0.63
2023-03-08T19:29:14.435Z,0.70
2023-03-08T19:31:43.954Z,0.80
2023-03-08T19:34:13.279Z,0.50
2023-03-08T19:36:42.247Z,0.40
2023-03-08T19:39:11.580Z,0.70
2023-03-08T19:41:40.106Z,0.73
2023-03-08T19:44:09.240Z,0.37
2023-03-08T19:46:40.009Z,0.40
2023-03-08T19:49:09.175Z,0.60
2023-03-08T19:51:37.973Z,0.40
2023-03-08T19:54:07.182Z,0.40
2023-03-08T19:56:36.168Z,0.73
2023-03-08T19:59:05.126Z,0.47
2023-03-08T20:01:33.697Z,0.30
2023-03-08T20:04:03.616Z,0.43
2023-03-08T20:06:33.287Z,0.30
2023-03-08T20:09:02.197Z,0.30
2023-03-08T20:11:31.220Z,0.40
2023-03-08T20:14:00.250Z,0.30
2023-03-08T20:16:29.088Z,0.33
2023-03-08T20:18:57.846Z,0.33
2023-03-08T20:21:29.816Z,0.30
2023-03-08T20:23:59.634Z,0.40
2023-03-08T20:26:29.184Z,0.30
2023-03-08T20:28:58.022Z,0.30
2023-03-08T20:31:27.265Z,0.20
2023-03-08T20:33:56.253Z,0.30
2023-03-08T20:36:25.033Z,0.30
2023-03-08T20:38:55.244Z,0.20
2023-03-08T20:41:24.581Z,0.20
2023-03-08T20:43:55.655Z,0.40
2023-03-08T20:46:25.321Z,0.20
2023-03-08T20:48:54.014Z,0.27
2023-03-08T20:51:24.039Z,0.03
2023-03-08T20:53:53.504Z,0.20
2023-03-08T20:56:24.071Z,0.20
2023-03-08T20:58:54.615Z,0.30
2023-03-08T21:01:24.099Z,0.10
2023-03-08T21:03:52.964Z,0.10
2023-03-08T21:06:22.411Z,0.40
2023-03-08T21:08:51.349Z,0.20
2023-03-08T21:11:19.977Z,0.30
2023-03-08T21:13:51.130Z,0.27
2023-03-08T21:16:21.089Z,0.30
2023-03-08T21:18:50.775Z,0.40
2023-03-08T21:21:20.436Z,0.27
2023-03-08T21:23:49.957Z,0.30
2023-03-08T21:26:18.495Z,0.17
2023-03-08T21:28:47.118Z,0.40
2023-03-08T21:31:17.704Z,0.20
2023-03-08T21:33:46.184Z,0.30
2023-03-08T21:36:14.804Z,0.20
2023-03-08T21:38:43.514Z,0.10
2023-03-08T21:41:18.173Z,0.20
2023-03-08T21:43:46.771Z,0.13
2023-03-08T21:46:15.829Z,0.20
2023-03-08T21:48:46.012Z,0.10
2023-03-08T21:51:15.202Z,0.40
2023-03-08T21:53:43.880Z,0.40
2023-03-08T21:56:14.100Z,0.30
2023-03-08T21:58:43.243Z,0.40
2023-03-08T22:01:19.941Z,0.30
2023-03-08T22:03:50.238Z,0.23
2023-03-08T22:06:18.700Z,0.50
2023-03-08T22:08:47.522Z,0.20
2023-03-08T22:11:16.289Z,0.23
2023-03-08T22:13:44.872Z,0.13
2023-03-08T22:16:13.652Z,0.17
2023-03-08T22:18:42.327Z,0.30
2023-03-08T22:21:12.212Z,0.30
2023-03-08T22:23:40.821Z,0.30
2023-03-08T22:26:09.855Z,0.00
2023-03-08T22:28:39.249Z,0.23
2023-03-08T22:31:11.689Z,0.10
2023-03-08T22:33:40.754Z,0.20
2023-03-08T22:36:10.385Z,0.20
2023-03-08T22:38:40.500Z,0.20
2023-03-08T22:41:10.890Z,0.13
2023-03-08T22:43:39.377Z,0.20
2023-03-08T22:46:09.207Z,0.20
2023-03-08T22:48:38.148Z,0.10
2023-03-08T22:51:11.027Z,0.10
2023-03-08T22:53:41.593Z,0.10
2023-03-08T22:56:10.849Z,0.33
2023-03-08T22:58:39.529Z,0.10
2023-03-08T23:01:14.326Z,0.00
2023-03-08T23:03:43.068Z,0.10
2023-03-08T23:06:11.904Z,0.20
2023-03-08T23:08:41.823Z,0.20
2023-03-08T23:11:11.474Z,0.00
2023-03-08T23:13:41.161Z,0.20
2023-03-08T23:16:10.225Z,0.20
2023-03-08T23:18:38.719Z,0.10
2023-03-08T23:21:08.261Z,0.20
2023-03-08T23:23:37.063Z,0.30
2023-03-08T23:26:07.624Z,0.30
2023-03-08T23:28:36.899Z,0.10
2023-03-08T23:31:09.814Z,0.10
2023-03-08T23:33:38.450Z,0.30
2023-03-08T23:36:07.414Z,0.30
2023-03-08T23:38:36.057Z,0.03
2023-03-08T23:41:06.124Z,0.33
2023-03-08T23:43:36.443Z,0.20
2023-03-08T23:46:07.495Z,0.20
2023-03-08T23:48:36.029Z,0.10
2023-03-08T23:51:05.355Z,0.30
2023-03-08T23:53:34.331Z,0.23
2023-03-08T23:56:03.033Z,0.10
2023-03-08T23:58:31.650Z,0.20
